Time;durP1;ratioP1;P1;durP2;ratioP2;P2;SDS_P1;SDS_P2;PMS_P1;PMS_P2;Temp;Humidity;BMP_temperature;BMP_pressure;BME280_temperature;BME280_humidity;BME280_pressure;Samples;Min_cycle;Max_cycle;Signal;HPM_P1;HPM_P2
2021/12/31 00:01:42;;;;;;;5.45;1.65;;;;;;;;;;5113186;28;20099;-52
2021/12/31 00:04:07;;;;;;;17.58;1.60;;;;;;;;;;5112854;28;20043;-51
2021/12/31 00:06:33;;;;;;;6.32;2.78;;;;;;;;;;5096056;28;20032;-49
2021/12/31 00:08:59;;;;;;;5.47;1.50;;;;;;;;;;5094450;28;20024;-50
2021/12/31 00:11:24;;;;;;;4.78;1.23;;;;;;;;;;5101054;28;20027;-51
2021/12/31 00:13:49;;;;;;;11.18;2.03;;;;;;;;;;5107114;28;20061;-52
2021/12/31 00:16:14;;;;;;;6.15;1.17;;;;;;;;;;5104831;28;20081;-49
2021/12/31 00:18:40;;;;;;;4.37;1.87;;;;;;;;;;5106092;28;20505;-51
2021/12/31 00:21:06;;;;;;;3.80;1.30;;;;;;;;;;5104631;28;20425;-52
2021/12/31 00:23:31;;;;;;;2.35;1.00;;;;;;;;;;5104502;28;20601;-52
2021/12/31 00:25:56;;;;;;;7.03;1.48;;;;;;;;;;5100916;28;20041;-50
2021/12/31 00:28:21;;;;;;;9.88;1.30;;;;;;;;;;5095563;28;20036;-52
2021/12/31 00:30:52;;;;;;;5.55;1.05;;;;;;;;;;5096033;28;20043;-51
2021/12/31 00:33:18;;;;;;;6.75;1.38;;;;;;;;;;5096195;28;20035;-52
2021/12/31 00:35:43;;;;;;;5.22;1.65;;;;;;;;;;5104336;28;20545;-53
2021/12/31 00:38:08;;;;;;;2.85;1.40;;;;;;;;;;5120742;27;20077;-50
2021/12/31 00:40:33;;;;;;;5.05;2.42;;;;;;;;;;5106775;28;20484;-52
2021/12/31 00:42:59;;;;;;;3.60;1.25;;;;;;;;;;5103922;28;20365;-53
2021/12/31 00:45:25;;;;;;;5.05;1.23;;;;;;;;;;5105850;28;20480;-52
2021/12/31 00:47:50;;;;;;;5.38;1.35;;;;;;;;;;5104185;28;20028;-52
2021/12/31 00:50:15;;;;;;;5.85;2.33;;;;;;;;;;5105980;28;20019;-52
2021/12/31 00:52:41;;;;;;;2.83;1.33;;;;;;;;;;5105252;28;20020;-52
2021/12/31 00:55:07;;;;;;;4.25;1.33;;;;;;;;;;5104377;28;20024;-51
2021/12/31 00:57:32;;;;;;;7.43;1.30;;;;;;;;;;5109241;28;20485;-50
2021/12/31 00:59:57;;;;;;;3.47;1.17;;;;;;;;;;5115925;28;20124;-52
2021/12/31 01:02:25;;;;;;;2.13;1.48;;;;;;;;;;5115943;28;20027;-51
2021/12/31 01:04:51;;;;;;;4.22;1.13;;;;;;;;;;5099594;28;20032;-53
2021/12/31 01:07:16;;;;;;;3.50;1.52;;;;;;;;;;5075157;28;20021;-51
2021/12/31 01:09:41;;;;;;;7.43;1.52;;;;;;;;;;5094313;28;20028;-51
2021/12/31 01:12:10;;;;;;;5.90;1.58;;;;;;;;;;5095253;28;20032;-51
2021/12/31 01:14:38;;;;;;;5.70;0.93;;;;;;;;;;5094130;28;20028;-49
2021/12/31 01:17:08;;;;;;;1.67;1.00;;;;;;;;;;5095394;28;20095;-50
2021/12/31 01:19:46;;;;;;;2.75;1.13;;;;;;;;;;5094941;28;20032;-47
2021/12/31 01:22:14;;;;;;;6.95;1.42;;;;;;;;;;5106373;28;20032;-50
2021/12/31 01:24:39;;;;;;;5.43;1.35;;;;;;;;;;5115482;28;20028;-49
2021/12/31 01:27:04;;;;;;;4.67;1.60;;;;;;;;;;5115217;28;20468;-53
2021/12/31 01:29:29;;;;;;;4.97;1.50;;;;;;;;;;5114947;28;20424;-52
2021/12/31 01:31:55;;;;;;;4.70;1.42;;;;;;;;;;5116363;28;20372;-53
2021/12/31 01:34:22;;;;;;;5.22;1.30;;;;;;;;;;5110329;28;20518;-50
2021/12/31 01:36:47;;;;;;;3.03;1.27;;;;;;;;;;5094533;28;20044;-52
2021/12/31 01:39:13;;;;;;;4.07;1.13;;;;;;;;;;5094738;28;20032;-52
2021/12/31 01:41:38;;;;;;;3.88;1.30;;;;;;;;;;5094575;28;20496;-50
2021/12/31 01:44:05;;;;;;;2.55;1.13;;;;;;;;;;5095162;28;20074;-50
2021/12/31 01:46:30;;;;;;;3.85;1.20;;;;;;;;;;5094692;28;20039;-53
2021/12/31 01:51:23;;;;;;;2.90;1.27;;;;;;;;;;5094434;28;20025;-52
2021/12/31 01:53:49;;;;;;;5.70;1.33;;;;;;;;;;5094459;28;20020;-51
2021/12/31 01:56:14;;;;;;;5.00;1.38;;;;;;;;;;5093108;28;20071;-50
2021/12/31 01:58:41;;;;;;;3.47;1.30;;;;;;;;;;5094437;28;20047;-49
2021/12/31 02:01:06;;;;;;;5.72;2.00;;;;;;;;;;5094276;28;20508;-47
2021/12/31 02:03:32;;;;;;;3.25;1.17;;;;;;;;;;5094150;28;20075;-53
2021/12/31 02:05:58;;;;;;;7.90;1.20;;;;;;;;;;5093815;28;20036;-52
2021/12/31 02:08:23;;;;;;;4.18;1.00;;;;;;;;;;5085758;28;20033;-51
2021/12/31 02:10:49;;;;;;;2.95;1.30;;;;;;;;;;5073915;28;20539;-50
2021/12/31 02:13:15;;;;;;;2.80;1.10;;;;;;;;;;5091258;28;20028;-50
2021/12/31 02:15:40;;;;;;;4.13;1.48;;;;;;;;;;5093894;28;20511;-51
2021/12/31 02:18:08;;;;;;;2.33;1.27;;;;;;;;;;5093699;28;20028;-51
2021/12/31 02:20:35;;;;;;;4.72;1.38;;;;;;;;;;5093251;28;20024;-51
2021/12/31 02:23:06;;;;;;;1.88;1.23;;;;;;;;;;5093554;28;20446;-52
2021/12/31 02:25:33;;;;;;;6.28;1.75;;;;;;;;;;5093585;28;20086;-52
2021/12/31 02:27:58;;;;;;;3.22;1.35;;;;;;;;;;5093379;28;20047;-52
2021/12/31 02:30:23;;;;;;;3.58;1.08;;;;;;;;;;5093584;28;20039;-51
2021/12/31 02:32:48;;;;;;;4.97;1.30;;;;;;;;;;5093531;28;20032;-52
2021/12/31 02:35:14;;;;;;;4.25;1.50;;;;;;;;;;5093169;28;20040;-50
2021/12/31 02:37:39;;;;;;;2.85;1.15;;;;;;;;;;5093950;28;20020;-51
2021/12/31 02:40:05;;;;;;;5.05;1.48;;;;;;;;;;5093471;28;20058;-52
2021/12/31 02:42:31;;;;;;;6.45;1.50;;;;;;;;;;5093004;28;20029;-51
2021/12/31 02:44:56;;;;;;;3.45;1.10;;;;;;;;;;5093286;28;20043;-53
2021/12/31 02:47:22;;;;;;;3.28;1.65;;;;;;;;;;5093156;28;20492;-50
2021/12/31 02:49:48;;;;;;;4.70;1.73;;;;;;;;;;5093591;28;20502;-51
2021/12/31 02:52:14;;;;;;;2.78;0.95;;;;;;;;;;5093258;28;20031;-52
2021/12/31 02:54:41;;;;;;;4.60;1.35;;;;;;;;;;5093173;28;20043;-52
2021/12/31 02:57:06;;;;;;;3.35;1.20;;;;;;;;;;5092861;28;20488;-52
2021/12/31 02:59:33;;;;;;;3.42;1.30;;;;;;;;;;5092887;28;20035;-51
2021/12/31 03:01:58;;;;;;;9.27;1.73;;;;;;;;;;5093694;28;20028;-52
2021/12/31 03:04:24;;;;;;;3.33;1.40;;;;;;;;;;5093495;28;20039;-52
2021/12/31 03:06:52;;;;;;;5.68;1.52;;;;;;;;;;5093147;28;20514;-51
2021/12/31 03:09:21;;;;;;;5.00;1.40;;;;;;;;;;5093009;28;20043;-51
2021/12/31 03:11:46;;;;;;;3.03;1.50;;;;;;;;;;5093354;28;20032;-52
2021/12/31 03:14:12;;;;;;;2.70;1.40;;;;;;;;;;5093151;28;20047;-52
2021/12/31 03:16:37;;;;;;;4.80;1.08;;;;;;;;;;5092867;28;20495;-52
2021/12/31 03:19:02;;;;;;;4.82;1.40;;;;;;;;;;5093165;28;20070;-50
2021/12/31 03:21:29;;;;;;;2.80;1.00;;;;;;;;;;5092666;28;20086;-52
2021/12/31 03:23:55;;;;;;;2.50;1.30;;;;;;;;;;5092632;28;20043;-53
2021/12/31 03:26:20;;;;;;;5.15;1.23;;;;;;;;;;5092881;28;20028;-51
2021/12/31 03:28:45;;;;;;;4.82;1.63;;;;;;;;;;5093293;28;20472;-53
2021/12/31 03:31:11;;;;;;;1.88;1.20;;;;;;;;;;5092629;28;20084;-53
2021/12/31 03:33:36;;;;;;;4.30;1.95;;;;;;;;;;5092560;28;20059;-53
2021/12/31 03:36:04;;;;;;;3.38;1.58;;;;;;;;;;5092775;28;20051;-50
2021/12/31 03:38:29;;;;;;;2.70;1.10;;;;;;;;;;5095001;28;20031;-51
2021/12/31 03:40:54;;;;;;;5.05;1.95;;;;;;;;;;5097417;28;20035;-52
2021/12/31 03:43:20;;;;;;;2.05;1.13;;;;;;;;;;5096782;28;20034;-52
2021/12/31 03:45:46;;;;;;;1.73;1.02;;;;;;;;;;5096951;28;20052;-52
2021/12/31 03:48:12;;;;;;;3.15;1.20;;;;;;;;;;5096776;28;20085;-49
2021/12/31 03:50:37;;;;;;;1.95;0.93;;;;;;;;;;5096978;28;20032;-51
2021/12/31 03:53:02;;;;;;;4.93;1.13;;;;;;;;;;5097099;28;20468;-51
2021/12/31 03:55:27;;;;;;;2.50;1.20;;;;;;;;;;5096621;28;20680;-49
2021/12/31 03:57:53;;;;;;;2.40;0.98;;;;;;;;;;5096523;28;20028;-50
2021/12/31 04:00:18;;;;;;;4.78;1.25;;;;;;;;;;5096571;28;20028;-50
2021/12/31 04:02:43;;;;;;;5.95;1.55;;;;;;;;;;5096682;28;20063;-49
2021/12/31 04:05:09;;;;;;;2.33;0.90;;;;;;;;;;5097789;28;20078;-53
2021/12/31 04:07:34;;;;;;;4.35;1.30;;;;;;;;;;5094901;28;20051;-49
2021/12/31 04:09:59;;;;;;;3.30;1.73;;;;;;;;;;5076251;28;20526;-52
2021/12/31 04:12:25;;;;;;;3.05;1.02;;;;;;;;;;5076005;28;20060;-50
2021/12/31 04:14:50;;;;;;;3.75;0.77;;;;;;;;;;5075766;28;20040;-49
2021/12/31 04:17:15;;;;;;;3.75;1.45;;;;;;;;;;5077503;28;20036;-49
2021/12/31 04:19:43;;;;;;;1.88;1.17;;;;;;;;;;5096834;28;20040;-50
2021/12/31 04:22:11;;;;;;;1.52;0.93;;;;;;;;;;5096636;28;20154;-53
2021/12/31 04:27:08;;;;;;;2.50;1.13;;;;;;;;;;5096011;28;20496;-51
2021/12/31 04:29:33;;;;;;;3.75;1.65;;;;;;;;;;5095812;28;20123;-51
2021/12/31 04:32:00;;;;;;;3.25;1.10;;;;;;;;;;5096356;28;20047;-52
2021/12/31 04:34:25;;;;;;;3.40;1.20;;;;;;;;;;5095576;28;20047;-52
2021/12/31 04:36:51;;;;;;;2.50;1.08;;;;;;;;;;5095905;28;20562;-51
2021/12/31 04:39:16;;;;;;;2.97;0.82;;;;;;;;;;5095729;28;20115;-50
2021/12/31 04:41:41;;;;;;;2.85;1.45;;;;;;;;;;5095799;28;20056;-52
2021/12/31 04:44:06;;;;;;;2.40;1.05;;;;;;;;;;5095973;28;20070;-52
2021/12/31 04:46:31;;;;;;;2.05;1.05;;;;;;;;;;5095291;28;20089;-49
2021/12/31 04:48:57;;;;;;;2.90;1.02;;;;;;;;;;5094886;28;20062;-52
2021/12/31 04:51:22;;;;;;;2.63;1.10;;;;;;;;;;5095327;28;20028;-52
2021/12/31 04:53:47;;;;;;;3.92;1.05;;;;;;;;;;5095527;28;20039;-52
2021/12/31 04:56:12;;;;;;;1.08;0.75;;;;;;;;;;5095993;28;20042;-51
2021/12/31 04:58:37;;;;;;;2.97;0.97;;;;;;;;;;5095339;28;20089;-53
2021/12/31 05:01:03;;;;;;;3.00;0.88;;;;;;;;;;5092909;28;20448;-51
2021/12/31 05:03:28;;;;;;;2.13;0.93;;;;;;;;;;5074703;28;20044;-51
2021/12/31 05:05:53;;;;;;;2.20;0.73;;;;;;;;;;5074777;28;20063;-51
2021/12/31 05:08:19;;;;;;;2.63;0.82;;;;;;;;;;5081882;28;20522;-52
2021/12/31 05:10:44;;;;;;;2.33;0.95;;;;;;;;;;5095070;28;20024;-53
2021/12/31 05:13:14;;;;;;;1.85;0.88;;;;;;;;;;5094508;28;20170;-53
2021/12/31 05:15:45;;;;;;;2.75;1.05;;;;;;;;;;5094119;28;20032;-53
2021/12/31 05:18:10;;;;;;;1.13;0.80;;;;;;;;;;5095335;28;20054;-53
2021/12/31 05:20:35;;;;;;;1.42;0.63;;;;;;;;;;5087213;28;20111;-52
2021/12/31 05:23:01;;;;;;;1.30;0.68;;;;;;;;;;5075031;28;20107;-51
2021/12/31 05:25:26;;;;;;;2.88;1.15;;;;;;;;;;5074618;28;20473;-51
2021/12/31 05:27:51;;;;;;;1.75;0.70;;;;;;;;;;5074568;28;20044;-50
2021/12/31 05:30:18;;;;;;;4.10;1.38;;;;;;;;;;5074458;28;20029;-50
2021/12/31 05:32:43;;;;;;;2.67;0.70;;;;;;;;;;5079914;28;20487;-51
2021/12/31 05:35:09;;;;;;;2.88;0.80;;;;;;;;;;5094959;28;20023;-51
2021/12/31 05:37:34;;;;;;;3.45;1.38;;;;;;;;;;5094623;28;20024;-51
2021/12/31 05:39:59;;;;;;;3.75;0.80;;;;;;;;;;5094873;28;20174;-52
2021/12/31 05:42:24;;;;;;;2.97;0.98;;;;;;;;;;5094361;28;20039;-52
2021/12/31 05:44:50;;;;;;;2.13;0.77;;;;;;;;;;5094448;28;20111;-52
2021/12/31 05:47:15;;;;;;;3.75;0.85;;;;;;;;;;5076985;28;20055;-52
2021/12/31 05:49:40;;;;;;;3.60;1.05;;;;;;;;;;5074482;28;20037;-52
2021/12/31 05:52:05;;;;;;;6.57;2.10;;;;;;;;;;5073905;28;20043;-53
2021/12/31 05:54:31;;;;;;;5.20;1.30;;;;;;;;;;5073814;28;20588;-52
2021/12/31 05:56:56;;;;;;;1.80;0.75;;;;;;;;;;5080713;28;20063;-52
2021/12/31 05:59:22;;;;;;;2.72;0.80;;;;;;;;;;5094286;28;20024;-52
2021/12/31 06:01:47;;;;;;;1.77;0.68;;;;;;;;;;5094186;28;20042;-55
2021/12/31 06:04:12;;;;;;;2.95;0.93;;;;;;;;;;5094250;28;20038;-52
2021/12/31 06:06:37;;;;;;;2.17;0.75;;;;;;;;;;5094217;28;20029;-50
2021/12/31 06:09:04;;;;;;;2.45;0.80;;;;;;;;;;5080347;28;20040;-53
2021/12/31 06:11:29;;;;;;;2.10;0.80;;;;;;;;;;5074016;28;20086;-50
2021/12/31 06:14:05;;;;;;;2.65;0.90;;;;;;;;;;5084113;28;20024;-52
2021/12/31 06:16:37;;;;;;;2.03;0.60;;;;;;;;;;5095828;28;20051;-51
2021/12/31 06:19:03;;;;;;;2.97;0.80;;;;;;;;;;5114237;28;20038;-51
2021/12/31 06:21:28;;;;;;;1.38;0.55;;;;;;;;;;5114438;28;20055;-53
2021/12/31 06:23:54;;;;;;;2.15;0.70;;;;;;;;;;5095659;28;20056;-52
2021/12/31 06:26:19;;;;;;;1.52;0.50;;;;;;;;;;5113872;28;20439;-52
2021/12/31 06:28:44;;;;;;;2.50;0.50;;;;;;;;;;5114280;28;20024;-51
2021/12/31 06:31:09;;;;;;;1.38;0.95;;;;;;;;;;5114222;28;20372;-53
2021/12/31 06:33:35;;;;;;;3.40;0.68;;;;;;;;;;5095661;28;20392;-52
2021/12/31 06:36:00;;;;;;;1.98;0.30;;;;;;;;;;5113759;28;20059;-53
2021/12/31 06:38:25;;;;;;;1.13;0.60;;;;;;;;;;5114065;28;20027;-52
2021/12/31 06:40:51;;;;;;;2.10;0.50;;;;;;;;;;5111738;28;20541;-50
2021/12/31 06:43:16;;;;;;;2.17;0.50;;;;;;;;;;5086224;28;20491;-53
2021/12/31 06:45:41;;;;;;;0.82;0.20;;;;;;;;;;5092166;28;20035;-51
2021/12/31 06:48:06;;;;;;;0.70;0.43;;;;;;;;;;5092697;28;20028;-53
2021/12/31 06:50:32;;;;;;;1.35;0.50;;;;;;;;;;5092711;28;20494;-53
2021/12/31 06:52:57;;;;;;;2.65;0.70;;;;;;;;;;5094509;28;20526;-53
2021/12/31 06:55:22;;;;;;;1.13;0.30;;;;;;;;;;5092564;28;20024;-53
2021/12/31 06:57:49;;;;;;;1.83;0.30;;;;;;;;;;5092411;28;20021;-52
2021/12/31 07:00:15;;;;;;;2.05;0.52;;;;;;;;;;5094801;28;20498;-52
2021/12/31 07:02:40;;;;;;;1.92;0.50;;;;;;;;;;5103763;28;20030;-51
2021/12/31 07:05:06;;;;;;;0.75;0.35;;;;;;;;;;5100204;28;20495;-54
2021/12/31 07:07:31;;;;;;;0.85;0.63;;;;;;;;;;5091163;28;20484;-53
2021/12/31 07:09:56;;;;;;;0.77;0.38;;;;;;;;;;5095162;28;20036;-51
2021/12/31 07:12:21;;;;;;;1.48;0.52;;;;;;;;;;5101437;28;20084;-53
2021/12/31 07:14:46;;;;;;;1.17;0.32;;;;;;;;;;5093413;28;20059;-53
2021/12/31 07:17:12;;;;;;;2.22;0.60;;;;;;;;;;5093394;28;20051;-51
2021/12/31 07:19:37;;;;;;;3.30;0.68;;;;;;;;;;5092884;28;20526;-51
2021/12/31 07:22:02;;;;;;;0.90;0.55;;;;;;;;;;5092978;28;20043;-50
2021/12/31 07:24:27;;;;;;;1.88;0.57;;;;;;;;;;5093445;28;20115;-53
2021/12/31 07:26:53;;;;;;;2.20;0.80;;;;;;;;;;5104139;28;20032;-53
2021/12/31 07:29:18;;;;;;;3.83;0.50;;;;;;;;;;5091972;28;20063;-53
2021/12/31 07:31:44;;;;;;;2.97;0.68;;;;;;;;;;5098228;28;20020;-52
2021/12/31 07:34:09;;;;;;;1.08;0.52;;;;;;;;;;5098854;28;20036;-52
2021/12/31 07:36:35;;;;;;;7.38;0.90;;;;;;;;;;5109766;28;20499;-53
2021/12/31 07:39:05;;;;;;;1.10;0.43;;;;;;;;;;5089772;28;20037;-52
2021/12/31 07:41:30;;;;;;;1.33;0.30;;;;;;;;;;5077825;28;20115;-53
2021/12/31 07:43:55;;;;;;;4.78;0.82;;;;;;;;;;5100877;28;20103;-53
2021/12/31 07:46:21;;;;;;;3.22;0.60;;;;;;;;;;5097725;28;20028;-53
2021/12/31 07:48:46;;;;;;;1.33;0.40;;;;;;;;;;5092336;28;20036;-55
2021/12/31 07:51:11;;;;;;;2.05;0.60;;;;;;;;;;5093740;28;20059;-53
2021/12/31 07:53:36;;;;;;;0.95;0.50;;;;;;;;;;5092406;28;20029;-52
2021/12/31 07:56:02;;;;;;;1.13;0.57;;;;;;;;;;5092601;28;20044;-53
2021/12/31 07:58:27;;;;;;;4.20;0.60;;;;;;;;;;5092357;28;20101;-51
2021/12/31 08:00:53;;;;;;;1.90;0.45;;;;;;;;;;5095958;28;20028;-52
2021/12/31 08:03:18;;;;;;;2.85;0.57;;;;;;;;;;5113050;28;20119;-52
2021/12/31 08:05:43;;;;;;;1.70;0.60;;;;;;;;;;5112800;28;20031;-51
2021/12/31 08:08:09;;;;;;;3.28;0.60;;;;;;;;;;5106768;28;20913;-50
2021/12/31 08:10:34;;;;;;;6.38;0.95;;;;;;;;;;5092459;28;20035;-51
2021/12/31 08:13:01;;;;;;;2.47;0.68;;;;;;;;;;5092591;28;20029;-52
2021/12/31 08:15:26;;;;;;;1.05;0.55;;;;;;;;;;5110103;28;20038;-52
2021/12/31 08:17:53;;;;;;;3.05;0.70;;;;;;;;;;5094453;28;20107;-51
2021/12/31 08:20:19;;;;;;;6.43;0.90;;;;;;;;;;5091084;28;20085;-53
2021/12/31 08:22:44;;;;;;;2.17;0.70;;;;;;;;;;5096140;28;20009;-53
2021/12/31 08:25:09;;;;;;;1.02;0.60;;;;;;;;;;5102936;28;20086;-53
2021/12/31 08:27:36;;;;;;;3.55;0.68;;;;;;;;;;5106584;28;20048;-52
2021/12/31 08:30:01;;;;;;;1.15;0.57;;;;;;;;;;5100503;28;20085;-50
2021/12/31 08:32:26;;;;;;;0.70;0.47;;;;;;;;;;5099721;28;20017;-50
2021/12/31 08:34:51;;;;;;;1.27;0.57;;;;;;;;;;5098974;28;20499;-49
2021/12/31 08:37:16;;;;;;;3.08;0.57;;;;;;;;;;5099076;28;20093;-54
2021/12/31 08:39:42;;;;;;;1.00;0.50;;;;;;;;;;5099276;28;20032;-51
2021/12/31 08:42:07;;;;;;;4.17;0.70;;;;;;;;;;5097336;28;20028;-49
2021/12/31 08:44:32;;;;;;;2.05;0.73;;;;;;;;;;5094147;28;20554;-49
2021/12/31 08:46:57;;;;;;;1.30;0.77;;;;;;;;;;5095951;28;20065;-51
2021/12/31 08:49:26;;;;;;;2.28;0.90;;;;;;;;;;5093863;28;20067;-50
2021/12/31 08:51:52;;;;;;;3.80;0.70;;;;;;;;;;5093963;28;20031;-50
2021/12/31 08:54:17;;;;;;;3.80;0.60;;;;;;;;;;5094120;28;20024;-49
2021/12/31 08:56:43;;;;;;;2.53;1.25;;;;;;;;;;5093407;28;20125;-51
2021/12/31 08:59:09;;;;;;;4.38;1.42;;;;;;;;;;5075721;28;20036;-49
2021/12/31 09:01:34;;;;;;;2.92;0.70;;;;;;;;;;5098096;28;20039;-50
2021/12/31 09:03:59;;;;;;;3.35;0.73;;;;;;;;;;5093724;28;20464;-52
2021/12/31 09:06:26;;;;;;;2.33;0.90;;;;;;;;;;5101717;28;20051;-54
2021/12/31 09:08:53;;;;;;;3.88;1.05;;;;;;;;;;5074027;28;20032;-54
2021/12/31 09:11:18;;;;;;;0.98;0.50;;;;;;;;;;5092929;28;20020;-53
2021/12/31 09:13:46;;;;;;;5.35;0.77;;;;;;;;;;5093867;28;20066;-51
2021/12/31 09:16:11;;;;;;;2.13;0.70;;;;;;;;;;5090611;28;20119;-51
2021/12/31 09:18:36;;;;;;;3.65;0.73;;;;;;;;;;5093258;28;20145;-53
2021/12/31 09:21:02;;;;;;;1.25;0.50;;;;;;;;;;5093468;28;20035;-55
2021/12/31 09:23:27;;;;;;;3.60;1.10;;;;;;;;;;5093088;28;20094;-53
2021/12/31 09:25:54;;;;;;;3.85;1.23;;;;;;;;;;5094101;28;20064;-52
2021/12/31 09:28:19;;;;;;;1.95;0.80;;;;;;;;;;5093926;28;20507;-56
2021/12/31 09:30:45;;;;;;;2.33;0.93;;;;;;;;;;5101366;28;20062;-53
2021/12/31 09:33:10;;;;;;;2.47;0.85;;;;;;;;;;5100343;28;20429;-53
2021/12/31 09:35:36;;;;;;;1.67;0.80;;;;;;;;;;5098948;28;20059;-54
2021/12/31 09:38:07;;;;;;;2.45;0.70;;;;;;;;;;5100643;28;20469;-53
2021/12/31 09:40:32;;;;;;;3.33;1.40;;;;;;;;;;5098115;28;20043;-52
2021/12/31 09:43:04;;;;;;;1.10;0.90;;;;;;;;;;5099400;28;20365;-49
2021/12/31 09:45:31;;;;;;;5.72;0.80;;;;;;;;;;5095001;28;20028;-51
2021/12/31 09:47:59;;;;;;;2.05;0.75;;;;;;;;;;5102685;28;20031;-52
2021/12/31 09:50:25;;;;;;;2.20;1.30;;;;;;;;;;5114154;28;20051;-52
2021/12/31 09:52:51;;;;;;;3.35;1.10;;;;;;;;;;5114981;28;20058;-51
2021/12/31 09:55:33;;;;;;;1.75;1.20;;;;;;;;;;5114535;28;20058;-53
2021/12/31 09:57:58;;;;;;;4.80;1.48;;;;;;;;;;5108417;28;20028;-48
2021/12/31 10:00:26;;;;;;;4.20;1.08;;;;;;;;;;5103602;28;20020;-51
2021/12/31 10:03:07;;;;;;;4.90;1.40;;;;;;;;;;5102718;28;20025;-50
2021/12/31 10:05:49;;;;;;;2.58;0.85;;;;;;;;;;5102399;28;20111;-54
2021/12/31 10:08:19;;;;;;;2.17;0.90;;;;;;;;;;5099738;28;20024;-52
2021/12/31 10:11:01;;;;;;;3.85;1.33;;;;;;;;;;5103179;28;20080;-52
2021/12/31 10:13:26;;;;;;;4.07;1.02;;;;;;;;;;5097571;28;20026;-53
2021/12/31 10:15:51;;;;;;;2.55;0.82;;;;;;;;;;5094432;28;20489;-56
2021/12/31 10:18:18;;;;;;;2.90;0.82;;;;;;;;;;5095224;28;20083;-52
2021/12/31 10:20:46;;;;;;;2.75;1.00;;;;;;;;;;5093288;28;20050;-52
2021/12/31 10:23:13;;;;;;;3.50;0.82;;;;;;;;;;5097519;28;20055;-54
2021/12/31 10:25:39;;;;;;;1.35;0.98;;;;;;;;;;5079561;28;20092;-56
2021/12/31 10:28:09;;;;;;;4.28;1.08;;;;;;;;;;5097381;28;20036;-55
2021/12/31 10:30:34;;;;;;;1.65;0.68;;;;;;;;;;5096831;28;20400;-56
2021/12/31 10:32:59;;;;;;;5.00;1.05;;;;;;;;;;5097423;28;20028;-54
2021/12/31 10:35:25;;;;;;;1.90;0.75;;;;;;;;;;5102231;28;20471;-55
2021/12/31 10:37:57;;;;;;;5.03;1.00;;;;;;;;;;5112774;28;20028;-55
2021/12/31 10:40:27;;;;;;;2.63;0.80;;;;;;;;;;5092430;28;20032;-55
2021/12/31 10:43:07;;;;;;;4.45;1.30;;;;;;;;;;5089969;28;20410;-54
2021/12/31 10:45:34;;;;;;;3.25;1.17;;;;;;;;;;5093145;28;20043;-53
2021/12/31 10:48:06;;;;;;;3.28;0.75;;;;;;;;;;5093145;28;20400;-55
2021/12/31 10:50:32;;;;;;;2.08;0.75;;;;;;;;;;5093265;28;20069;-55
2021/12/31 10:53:01;;;;;;;6.82;1.20;;;;;;;;;;5093583;28;20063;-56
2021/12/31 10:55:29;;;;;;;8.63;1.48;;;;;;;;;;5089628;28;20420;-56
2021/12/31 10:57:55;;;;;;;4.03;0.82;;;;;;;;;;5072882;28;20507;-56
2021/12/31 11:00:21;;;;;;;1.25;0.70;;;;;;;;;;5072752;28;20036;-54
2021/12/31 11:02:47;;;;;;;2.20;0.73;;;;;;;;;;5074285;28;20029;-54
2021/12/31 11:05:13;;;;;;;3.35;0.70;;;;;;;;;;5075682;28;20035;-56
2021/12/31 11:07:39;;;;;;;3.13;0.98;;;;;;;;;;5087629;28;20068;-55
2021/12/31 11:10:05;;;;;;;1.55;0.75;;;;;;;;;;5072882;28;20392;-55
2021/12/31 11:12:30;;;;;;;3.85;1.15;;;;;;;;;;5072530;28;20036;-55
2021/12/31 11:14:56;;;;;;;4.70;1.10;;;;;;;;;;5072448;28;20447;-55
2021/12/31 11:17:22;;;;;;;2.55;1.52;;;;;;;;;;5072537;28;20122;-54
2021/12/31 11:19:49;;;;;;;3.35;1.25;;;;;;;;;;5073138;28;20070;-55
2021/12/31 11:22:15;;;;;;;3.85;1.02;;;;;;;;;;5072689;28;20403;-55
2021/12/31 11:24:40;;;;;;;3.80;1.25;;;;;;;;;;5072242;28;20129;-55
2021/12/31 11:27:24;;;;;;;3.55;1.30;;;;;;;;;;5072570;28;20492;-55
2021/12/31 11:29:49;;;;;;;4.40;1.42;;;;;;;;;;5072636;28;20029;-55
2021/12/31 11:32:15;;;;;;;3.15;0.98;;;;;;;;;;5103404;28;20031;-54
2021/12/31 11:34:40;;;;;;;15.02;1.45;;;;;;;;;;5105687;28;20035;-55
2021/12/31 11:37:05;;;;;;;2.45;0.98;;;;;;;;;;5092793;28;20032;-55
2021/12/31 11:39:33;;;;;;;5.80;1.25;;;;;;;;;;5092508;28;20150;-55
2021/12/31 11:42:02;;;;;;;2.08;1.00;;;;;;;;;;5092520;28;20035;-55
2021/12/31 11:44:28;;;;;;;1.67;1.03;;;;;;;;;;5092572;28;20028;-55
2021/12/31 11:47:12;;;;;;;3.90;1.20;;;;;;;;;;5092677;28;20020;-54
2021/12/31 11:49:37;;;;;;;4.10;1.25;;;;;;;;;;5092461;28;20098;-55
2021/12/31 11:52:14;;;;;;;4.32;1.50;;;;;;;;;;5092318;28;20036;-55
2021/12/31 11:54:40;;;;;;;6.10;1.33;;;;;;;;;;5092535;28;20032;-56
2021/12/31 11:57:09;;;;;;;5.45;1.45;;;;;;;;;;5092342;28;20486;-55
2021/12/31 11:59:36;;;;;;;2.75;1.00;;;;;;;;;;5091866;28;20035;-55
2021/12/31 12:02:20;;;;;;;4.45;1.65;;;;;;;;;;5093834;28;20023;-55
2021/12/31 12:04:57;;;;;;;3.55;1.70;;;;;;;;;;5102090;28;20404;-54
2021/12/31 12:07:33;;;;;;;4.45;1.65;;;;;;;;;;5094624;28;20163;-53
2021/12/31 12:09:58;;;;;;;3.33;1.50;;;;;;;;;;5094474;28;20510;-50
2021/12/31 12:12:23;;;;;;;4.03;1.48;;;;;;;;;;5094966;28;20028;-54
2021/12/31 12:14:49;;;;;;;3.37;1.60;;;;;;;;;;5096103;28;20157;-52
2021/12/31 12:17:15;;;;;;;4.13;1.63;;;;;;;;;;5094378;28;20451;-54
2021/12/31 12:19:47;;;;;;;1.77;0.90;;;;;;;;;;5095070;28;20025;-50
2021/12/31 12:22:32;;;;;;;5.68;1.30;;;;;;;;;;5094394;28;20036;-50
2021/12/31 12:24:58;;;;;;;5.13;1.38;;;;;;;;;;5092871;28;20402;-51
2021/12/31 12:27:24;;;;;;;4.55;1.33;;;;;;;;;;5094584;28;20043;-54
2021/12/31 12:29:50;;;;;;;4.22;1.73;;;;;;;;;;5094651;28;20475;-52
2021/12/31 12:32:17;;;;;;;4.32;1.60;;;;;;;;;;5094469;28;20024;-51
2021/12/31 12:34:43;;;;;;;4.57;1.30;;;;;;;;;;5095096;28;20016;-53
2021/12/31 12:37:08;;;;;;;3.33;1.40;;;;;;;;;;5094707;28;20088;-53
2021/12/31 12:39:33;;;;;;;8.80;2.00;;;;;;;;;;5094365;28;20111;-53
2021/12/31 12:41:59;;;;;;;4.00;2.03;;;;;;;;;;5094497;28;20024;-52
2021/12/31 12:44:24;;;;;;;6.18;2.33;;;;;;;;;;5094415;28;20016;-54
2021/12/31 12:46:51;;;;;;;3.72;2.00;;;;;;;;;;5094717;28;20027;-55
2021/12/31 12:49:18;;;;;;;4.40;2.35;;;;;;;;;;5095746;28;20518;-54
2021/12/31 12:51:44;;;;;;;5.30;1.77;;;;;;;;;;5075955;28;20036;-53
2021/12/31 12:54:13;;;;;;;7.00;2.40;;;;;;;;;;5093663;28;20399;-51
2021/12/31 12:56:38;;;;;;;6.78;2.60;;;;;;;;;;5092803;28;20491;-49
2021/12/31 12:59:03;;;;;;;4.35;1.92;;;;;;;;;;5093121;28;20020;-52
2021/12/31 13:01:30;;;;;;;4.70;2.13;;;;;;;;;;5092460;28;20522;-51
2021/12/31 13:03:55;;;;;;;5.55;2.00;;;;;;;;;;5092559;28;20028;-50
2021/12/31 13:06:22;;;;;;;5.75;2.20;;;;;;;;;;5092515;28;20043;-49
2021/12/31 13:08:47;;;;;;;5.13;2.60;;;;;;;;;;5092367;28;20048;-51
2021/12/31 13:11:14;;;;;;;6.88;3.22;;;;;;;;;;5091589;28;20059;-53
2021/12/31 13:13:39;;;;;;;6.38;2.70;;;;;;;;;;5092718;28;20557;-50
2021/12/31 13:16:06;;;;;;;7.00;2.60;;;;;;;;;;5091873;28;20032;-51
2021/12/31 13:18:35;;;;;;;10.05;3.25;;;;;;;;;;5091928;28;20034;-50
2021/12/31 13:21:02;;;;;;;6.38;2.90;;;;;;;;;;5092512;28;20415;-51
2021/12/31 13:23:27;;;;;;;7.13;2.90;;;;;;;;;;5091964;28;20536;-53
2021/12/31 13:25:52;;;;;;;9.15;3.10;;;;;;;;;;5092410;28;20019;-51
2021/12/31 13:28:22;;;;;;;3.72;2.40;;;;;;;;;;5092740;28;20050;-52
2021/12/31 13:31:06;;;;;;;6.97;3.65;;;;;;;;;;5091992;28;20032;-50
2021/12/31 13:33:37;;;;;;;4.88;2.70;;;;;;;;;;5090845;28;20123;-49
2021/12/31 13:36:02;;;;;;;;;;;;;;;;;;5092528;28;20494;-48
2021/12/31 13:38:27;;;;;;;5.25;2.50;;;;;;;;;;5092037;28;20007;-50
2021/12/31 13:40:54;;;;;;;5.57;2.17;;;;;;;;;;5092440;28;20099;-52
2021/12/31 13:43:24;;;;;;;6.78;2.63;;;;;;;;;;5091575;28;20059;-52
2021/12/31 13:45:49;;;;;;;5.50;2.13;;;;;;;;;;5091034;28;20282;-55
2021/12/31 13:48:16;;;;;;;5.27;2.37;;;;;;;;;;5091784;28;20544;-54
2021/12/31 13:50:41;;;;;;;5.30;2.70;;;;;;;;;;5091737;28;20433;-54
2021/12/31 13:53:06;;;;;;;3.13;1.90;;;;;;;;;;5092068;28;20488;-50
2021/12/31 13:55:32;;;;;;;3.80;2.10;;;;;;;;;;5091140;28;20066;-52
2021/12/31 13:58:00;;;;;;;7.55;2.65;;;;;;;;;;5091321;28;20024;-53
2021/12/31 14:00:26;;;;;;;4.22;2.08;;;;;;;;;;5091510;28;20032;-50
2021/12/31 14:02:51;;;;;;;6.15;2.30;;;;;;;;;;5091235;28;20442;-54
2021/12/31 14:05:27;;;;;;;3.65;1.98;;;;;;;;;;5091467;28;20069;-51
2021/12/31 14:10:22;;;;;;;7.38;3.28;;;;;;;;;;5091422;28;20103;-54
2021/12/31 14:13:11;;;;;;;6.57;3.30;;;;;;;;;;5094147;28;20060;-54
2021/12/31 14:15:40;;;;;;;10.10;3.92;;;;;;;;;;4982273;28;20125;-54
2021/12/31 14:18:06;;;;;;;4.93;2.63;;;;;;;;;;4989007;28;20033;-55
2021/12/31 14:20:35;;;;;;;4.70;2.35;;;;;;;;;;4992133;28;20034;-55
2021/12/31 14:23:02;;;;;;;3.75;2.55;;;;;;;;;;4996418;28;20030;-53
2021/12/31 14:25:28;;;;;;;5.43;2.08;;;;;;;;;;5000882;28;20060;-53
2021/12/31 14:27:54;;;;;;;5.40;2.60;;;;;;;;;;4983747;28;20035;-54
2021/12/31 14:30:20;;;;;;;5.70;2.35;;;;;;;;;;4998824;28;20026;-54
2021/12/31 14:32:46;;;;;;;4.97;2.47;;;;;;;;;;4987506;28;20041;-57
2021/12/31 14:35:14;;;;;;;5.68;2.85;;;;;;;;;;4988276;28;20085;-59
2021/12/31 14:37:40;;;;;;;11.52;2.83;;;;;;;;;;4991613;28;20038;-55
2021/12/31 14:40:11;;;;;;;6.00;2.70;;;;;;;;;;4984706;28;20061;-55
2021/12/31 14:42:36;;;;;;;;;;;;;;;;;;4991021;28;20590;-53
2021/12/31 14:45:04;;;;;;;5.60;3.03;;;;;;;;;;4977469;28;20008;-52
2021/12/31 14:47:29;;;;;;;5.93;2.40;;;;;;;;;;4981844;28;20399;-52